Time;durP1;ratioP1;P1;durP2;ratioP2;P2;SDS_P1;SDS_P2;PMS_P1;PMS_P2;Temp;Humidity;BMP_temperature;BMP_pressure;BME280_temperature;BME280_humidity;BME280_pressure;Samples;Min_cycle;Max_cycle;Signal;HPM_P1;HPM_P2
2023/10/05 00:01:27;;;;;;;8.97;4.27;;;;;;;;;;5117530;27;20964;-77
2023/10/05 00:03:55;;;;;;;6.47;4.90;;;;;;;;;;5119823;27;20449;-77
2023/10/05 00:06:27;;;;;;;6.20;4.20;;;;;;;;;;5132962;27;20481;-77
2023/10/05 00:08:56;;;;;;;7.93;4.57;;;;;;;;;;5134987;27;20543;-77
2023/10/05 00:11:24;;;;;;;8.50;4.13;;;;;;;;;;5132547;27;21012;-77
2023/10/05 00:13:52;;;;;;;5.03;4.40;;;;;;;;;;5114094;28;20855;-77
2023/10/05 00:16:21;;;;;;;6.70;5.40;;;;;;;;;;5113968;28;20450;-77
2023/10/05 00:18:50;;;;;;;8.83;5.13;;;;;;;;;;5119086;27;20457;-77
2023/10/05 00:21:19;;;;;;;6.00;4.90;;;;;;;;;;5125014;27;20816;-77
2023/10/05 00:23:51;;;;;;;9.03;4.70;;;;;;;;;;5114315;28;20458;-77
2023/10/05 00:26:23;;;;;;;5.10;4.40;;;;;;;;;;5114071;28;20434;-77
2023/10/05 00:29:01;;;;;;;7.77;4.87;;;;;;;;;;5128177;28;20976;-77
2023/10/05 00:31:29;;;;;;;7.37;4.90;;;;;;;;;;5116995;28;20865;-77
2023/10/05 00:33:58;;;;;;;6.70;4.73;;;;;;;;;;5118152;28;20576;-77
2023/10/05 00:36:26;;;;;;;13.63;6.47;;;;;;;;;;5118094;28;20838;-77
2023/10/05 00:39:01;;;;;;;6.53;5.83;;;;;;;;;;5118110;28;20445;-77
2023/10/05 00:41:28;;;;;;;9.70;4.33;;;;;;;;;;5129113;27;20464;-77
2023/10/05 00:43:55;;;;;;;4.97;4.17;;;;;;;;;;5138277;27;20436;-77
2023/10/05 00:46:23;;;;;;;7.27;4.27;;;;;;;;;;5119344;27;20460;-77
2023/10/05 00:49:00;;;;;;;6.17;4.47;;;;;;;;;;5118344;28;20454;-77
2023/10/05 00:51:32;;;;;;;7.63;4.57;;;;;;;;;;5117846;28;20480;-77
2023/10/05 00:54:04;;;;;;;7.37;4.30;;;;;;;;;;5117493;28;20564;-77
2023/10/05 00:56:35;;;;;;;7.53;4.53;;;;;;;;;;5117784;28;20469;-77
2023/10/05 00:59:06;;;;;;;8.03;4.73;;;;;;;;;;5117769;28;20434;-77
2023/10/05 01:01:54;;;;;;;7.30;5.70;;;;;;;;;;5117396;28;20472;-77
2023/10/05 01:04:28;;;;;;;7.77;5.43;;;;;;;;;;5117625;27;20425;-77
2023/10/05 01:07:07;;;;;;;13.83;5.47;;;;;;;;;;5117210;28;20434;-77
2023/10/05 01:09:55;;;;;;;6.33;5.30;;;;;;;;;;5117230;28;20433;-77
2023/10/05 01:12:35;;;;;;;8.80;5.97;;;;;;;;;;5125698;27;20864;-77
2023/10/05 01:15:05;;;;;;;6.50;4.53;;;;;;;;;;5117224;28;20473;-77
2023/10/05 01:17:32;;;;;;;8.07;5.07;;;;;;;;;;5117069;28;20898;-76
2023/10/05 01:20:08;;;;;;;8.80;5.20;;;;;;;;;;5116886;28;20460;-77
2023/10/05 01:22:38;;;;;;;8.73;5.63;;;;;;;;;;5116942;28;20453;-77
2023/10/05 01:25:08;;;;;;;7.30;5.40;;;;;;;;;;5125364;27;20825;-77
2023/10/05 01:27:37;;;;;;;7.30;4.97;;;;;;;;;;5116888;28;20446;-77
2023/10/05 01:30:05;;;;;;;7.80;4.83;;;;;;;;;;5116610;28;20931;-77
2023/10/05 01:32:33;;;;;;;7.70;5.20;;;;;;;;;;5116538;28;20453;-77
2023/10/05 01:35:06;;;;;;;7.00;4.80;;;;;;;;;;5116965;28;20523;-77
2023/10/05 01:37:36;;;;;;;7.70;5.33;;;;;;;;;;5120166;27;20480;-76
2023/10/05 01:40:11;;;;;;;8.30;6.00;;;;;;;;;;5128435;27;20457;-77
2023/10/05 01:42:41;;;;;;;6.00;4.70;;;;;;;;;;5096411;28;20433;-77
2023/10/05 01:45:10;;;;;;;6.47;5.20;;;;;;;;;;5096430;28;20443;-76
2023/10/05 01:47:38;;;;;;;6.67;4.80;;;;;;;;;;5116621;28;20453;-77
2023/10/05 01:50:08;;;;;;;9.37;5.20;;;;;;;;;;5116792;28;20477;-77
2023/10/05 01:52:36;;;;;;;10.13;5.67;;;;;;;;;;5116403;27;20446;-77
2023/10/05 01:55:04;;;;;;;13.10;5.57;;;;;;;;;;5116586;28;20504;-76
2023/10/05 01:57:31;;;;;;;12.27;5.30;;;;;;;;;;5116389;28;20943;-77
2023/10/05 02:00:00;;;;;;;9.60;5.57;;;;;;;;;;5116358;28;20438;-76
2023/10/05 02:02:27;;;;;;;7.63;5.50;;;;;;;;;;5116176;28;20446;-77
2023/10/05 02:04:55;;;;;;;8.03;6.03;;;;;;;;;;5116507;28;20467;-77
2023/10/05 02:07:25;;;;;;;7.70;6.50;;;;;;;;;;5116201;28;20540;-77
2023/10/05 02:09:53;;;;;;;5.30;4.80;;;;;;;;;;5130660;27;20445;-77
2023/10/05 02:12:20;;;;;;;8.60;6.30;;;;;;;;;;5136842;27;20977;-77
2023/10/05 02:14:47;;;;;;;9.53;6.13;;;;;;;;;;5136761;27;20489;-77
2023/10/05 02:17:16;;;;;;;6.80;4.80;;;;;;;;;;5136296;27;20456;-77
2023/10/05 02:19:43;;;;;;;6.43;5.03;;;;;;;;;;5136395;27;21000;-77
2023/10/05 02:22:11;;;;;;;8.17;6.07;;;;;;;;;;5119299;27;20466;-76
2023/10/05 02:24:40;;;;;;;8.30;5.53;;;;;;;;;;5116123;28;20450;-77
2023/10/05 02:27:12;;;;;;;10.93;5.03;;;;;;;;;;5115982;28;20887;-77
2023/10/05 02:29:44;;;;;;;10.17;5.40;;;;;;;;;;5095658;28;20538;-77
2023/10/05 02:32:15;;;;;;;7.03;5.33;;;;;;;;;;5121215;27;20546;-78
2023/10/05 02:34:44;;;;;;;7.90;4.77;;;;;;;;;;5136549;27;20472;-77
2023/10/05 02:37:12;;;;;;;6.10;4.77;;;;;;;;;;5119072;27;20454;-77
2023/10/05 02:39:40;;;;;;;8.23;5.20;;;;;;;;;;5127481;27;20452;-77
2023/10/05 02:42:12;;;;;;;9.63;5.10;;;;;;;;;;5119311;27;20469;-77
2023/10/05 02:44:39;;;;;;;8.70;5.03;;;;;;;;;;5120388;27;20437;-77
2023/10/05 02:47:08;;;;;;;7.87;5.60;;;;;;;;;;5119340;27;20446;-77
2023/10/05 02:49:40;;;;;;;6.40;5.27;;;;;;;;;;5115566;28;20456;-77
2023/10/05 02:52:12;;;;;;;5.77;5.17;;;;;;;;;;5115381;28;20465;-77
2023/10/05 02:54:40;;;;;;;7.77;6.30;;;;;;;;;;5114882;28;20494;-77
2023/10/05 02:57:08;;;;;;;9.17;5.83;;;;;;;;;;5131855;27;20449;-77
2023/10/05 02:59:35;;;;;;;6.63;5.33;;;;;;;;;;5135971;27;20851;-77
2023/10/05 03:02:07;;;;;;;9.60;6.13;;;;;;;;;;5135461;27;20464;-77
2023/10/05 03:04:45;;;;;;;8.73;5.83;;;;;;;;;;5123951;27;20466;-77
2023/10/05 03:07:15;;;;;;;10.10;5.73;;;;;;;;;;5132522;27;20880;-77
2023/10/05 03:09:43;;;;;;;7.23;5.13;;;;;;;;;;5135294;27;20449;-77
2023/10/05 03:12:11;;;;;;;7.37;5.40;;;;;;;;;;5135149;27;20472;-77
2023/10/05 03:14:39;;;;;;;7.33;5.00;;;;;;;;;;5135389;27;20493;-77
2023/10/05 03:17:12;;;;;;;8.53;4.83;;;;;;;;;;5135021;27;20484;-77
2023/10/05 03:19:40;;;;;;;13.90;5.93;;;;;;;;;;5135583;27;20923;-77
2023/10/05 03:22:11;;;;;;;9.37;5.83;;;;;;;;;;5118353;27;20499;-77
2023/10/05 03:24:42;;;;;;;16.03;5.97;;;;;;;;;;5118665;27;20437;-77
2023/10/05 03:27:09;;;;;;;8.53;5.23;;;;;;;;;;5126931;27;20810;-77
2023/10/05 03:29:38;;;;;;;9.33;5.80;;;;;;;;;;5118160;27;20449;-77
2023/10/05 03:32:13;;;;;;;7.80;5.80;;;;;;;;;;5118577;27;20556;-77
2023/10/05 03:34:42;;;;;;;8.97;4.90;;;;;;;;;;5114963;28;20974;-77
2023/10/05 03:37:13;;;;;;;7.40;5.50;;;;;;;;;;5122871;27;20459;-77
2023/10/05 03:39:51;;;;;;;9.07;5.10;;;;;;;;;;5122480;27;20819;-77
2023/10/05 03:42:21;;;;;;;10.50;6.10;;;;;;;;;;5114139;28;20473;-77
2023/10/05 03:44:59;;;;;;;10.87;7.83;;;;;;;;;;5128396;27;20433;-77
2023/10/05 03:47:26;;;;;;;10.10;6.70;;;;;;;;;;5126445;27;20460;-77
2023/10/05 03:49:55;;;;;;;7.73;6.37;;;;;;;;;;5129253;27;20932;-77
2023/10/05 03:52:29;;;;;;;8.80;6.20;;;;;;;;;;5114403;28;20511;-77
2023/10/05 03:55:01;;;;;;;6.93;5.47;;;;;;;;;;5114342;28;20466;-77
2023/10/05 03:57:30;;;;;;;10.70;7.63;;;;;;;;;;5133774;27;20445;-77
2023/10/05 03:59:59;;;;;;;13.90;9.60;;;;;;;;;;5119387;27;20476;-77
2023/10/05 04:02:28;;;;;;;6.57;5.70;;;;;;;;;;5133097;27;20457;-77
2023/10/05 04:04:55;;;;;;;11.67;6.03;;;;;;;;;;5119100;27;20838;-77
2023/10/05 04:07:23;;;;;;;7.40;5.73;;;;;;;;;;5113937;28;20449;-77
2023/10/05 04:09:52;;;;;;;8.30;6.10;;;;;;;;;;5114168;28;20453;-77
2023/10/05 04:12:20;;;;;;;8.73;6.13;;;;;;;;;;5114160;28;20450;-77
2023/10/05 04:14:48;;;;;;;9.20;5.10;;;;;;;;;;5113526;28;20496;-77
2023/10/05 04:17:20;;;;;;;6.50;5.50;;;;;;;;;;5122307;27;20495;-77
2023/10/05 04:19:47;;;;;;;10.80;7.40;;;;;;;;;;5113805;28;20426;-77
2023/10/05 04:22:15;;;;;;;7.33;6.00;;;;;;;;;;5122338;28;20476;-77
2023/10/05 04:24:42;;;;;;;10.07;5.50;;;;;;;;;;5118054;28;20474;-77
2023/10/05 04:27:09;;;;;;;8.90;5.30;;;;;;;;;;5125996;27;20450;-77
2023/10/05 04:29:38;;;;;;;8.77;5.50;;;;;;;;;;5113942;28;20499;-77
2023/10/05 04:32:06;;;;;;;8.53;5.57;;;;;;;;;;5114008;28;20496;-77
2023/10/05 04:34:33;;;;;;;10.57;6.30;;;;;;;;;;5134135;28;20445;-77
2023/10/05 04:37:01;;;;;;;10.67;6.30;;;;;;;;;;5118522;28;20454;-77
2023/10/05 04:39:29;;;;;;;11.73;6.80;;;;;;;;;;5124792;28;20451;-77
2023/10/05 04:41:57;;;;;;;6.90;5.93;;;;;;;;;;5127807;28;20505;-77
2023/10/05 04:44:24;;;;;;;6.90;5.27;;;;;;;;;;5113508;28;20540;-77
2023/10/05 04:46:53;;;;;;;8.30;6.40;;;;;;;;;;5113586;28;20469;-77
2023/10/05 04:49:21;;;;;;;7.57;6.70;;;;;;;;;;5113474;28;21008;-77
2023/10/05 04:51:51;;;;;;;10.87;6.90;;;;;;;;;;5118969;28;20479;-77
2023/10/05 04:54:18;;;;;;;11.90;7.50;;;;;;;;;;5116442;28;20459;-77
2023/10/05 04:57:02;;;;;;;10.80;7.00;;;;;;;;;;5113283;28;20481;-77
2023/10/05 04:59:48;;;;;;;12.10;6.90;;;;;;;;;;5113530;28;20454;-77
2023/10/05 05:02:21;;;;;;;9.57;6.17;;;;;;;;;;5113130;28;20501;-77
2023/10/05 05:05:21;;;;;;;8.73;6.13;;;;;;;;;;5113406;28;20449;-77
2023/10/05 05:07:50;;;;;;;10.40;6.47;;;;;;;;;;5113649;28;20858;-77
2023/10/05 05:10:20;;;;;;;9.37;6.47;;;;;;;;;;5113923;28;20861;-78
2023/10/05 05:12:49;;;;;;;12.43;7.50;;;;;;;;;;5114153;28;20431;-78
2023/10/05 05:15:16;;;;;;;8.63;7.00;;;;;;;;;;5113438;28;20489;-77
2023/10/05 05:17:45;;;;;;;9.13;6.83;;;;;;;;;;5124249;27;20464;-77
2023/10/05 05:20:15;;;;;;;6.67;5.97;;;;;;;;;;5116560;28;20445;-77
2023/10/05 05:22:46;;;;;;;10.57;5.90;;;;;;;;;;5137312;27;20532;-77
2023/10/05 05:25:15;;;;;;;12.93;7.20;;;;;;;;;;5136626;27;20429;-77
2023/10/05 05:27:45;;;;;;;21.63;12.40;;;;;;;;;;5132483;27;20907;-77
2023/10/05 05:30:23;;;;;;;12.30;8.97;;;;;;;;;;5115976;28;20442;-77
2023/10/05 05:32:53;;;;;;;11.27;8.20;;;;;;;;;;5116132;28;20470;-77
2023/10/05 05:35:20;;;;;;;13.47;8.10;;;;;;;;;;5116189;28;20501;-77
2023/10/05 05:37:47;;;;;;;11.87;8.30;;;;;;;;;;5116189;28;20960;-77
2023/10/05 05:40:15;;;;;;;19.30;10.27;;;;;;;;;;5116837;27;20958;-77
2023/10/05 05:42:44;;;;;;;9.07;7.80;;;;;;;;;;5131862;27;20502;-76
2023/10/05 05:45:15;;;;;;;11.03;9.40;;;;;;;;;;5115651;28;20458;-76
2023/10/05 05:47:43;;;;;;;11.70;9.13;;;;;;;;;;5115645;28;20438;-76
2023/10/05 05:50:17;;;;;;;10.40;7.90;;;;;;;;;;5132535;27;20461;-76
2023/10/05 05:52:46;;;;;;;12.53;8.33;;;;;;;;;;5115847;28;20955;-76
2023/10/05 05:55:13;;;;;;;10.40;9.10;;;;;;;;;;5124225;27;20544;-77
2023/10/05 05:57:41;;;;;;;10.33;8.23;;;;;;;;;;5119648;27;20455;-76
2023/10/05 06:00:12;;;;;;;10.13;8.77;;;;;;;;;;5136314;27;20470;-77
2023/10/05 06:02:40;;;;;;;12.07;8.83;;;;;;;;;;5123704;27;20449;-76
2023/10/05 06:05:09;;;;;;;8.40;7.50;;;;;;;;;;5115636;28;20455;-76
2023/10/05 06:07:38;;;;;;;14.83;8.73;;;;;;;;;;5115548;28;20446;-77
2023/10/05 06:10:11;;;;;;;11.73;7.87;;;;;;;;;;5115248;28;20468;-77
2023/10/05 06:12:39;;;;;;;8.60;6.90;;;;;;;;;;5115681;28;20438;-76
2023/10/05 06:15:06;;;;;;;11.40;7.63;;;;;;;;;;5114968;28;20574;-77
2023/10/05 06:17:35;;;;;;;7.77;6.83;;;;;;;;;;5126858;27;20460;-77
2023/10/05 06:20:13;;;;;;;7.63;6.03;;;;;;;;;;5128442;27;20935;-77
2023/10/05 06:22:42;;;;;;;5.67;5.07;;;;;;;;;;5115544;28;20896;-77
2023/10/05 06:25:09;;;;;;;5.30;4.20;;;;;;;;;;5115910;28;20442;-77
2023/10/05 06:27:37;;;;;;;5.33;4.60;;;;;;;;;;5115651;28;20811;-77
2023/10/05 06:30:07;;;;;;;4.63;4.10;;;;;;;;;;5114627;28;20448;-77
2023/10/05 06:32:34;;;;;;;5.10;4.20;;;;;;;;;;5115832;28;20456;-77
2023/10/05 06:35:03;;;;;;;5.10;4.43;;;;;;;;;;5115291;28;20481;-77
2023/10/05 06:37:30;;;;;;;4.67;3.83;;;;;;;;;;5132418;27;20488;-77
2023/10/05 06:39:59;;;;;;;5.10;3.67;;;;;;;;;;5115492;28;20506;-77
2023/10/05 06:42:26;;;;;;;4.83;3.80;;;;;;;;;;5115363;28;20773;-78
2023/10/05 06:44:55;;;;;;;3.80;3.30;;;;;;;;;;5115388;28;20446;-77
2023/10/05 06:47:36;;;;;;;6.83;3.97;;;;;;;;;;5115452;28;20503;-77
2023/10/05 06:50:08;;;;;;;4.60;4.03;;;;;;;;;;5115180;28;20433;-77
2023/10/05 06:52:36;;;;;;;6.47;3.73;;;;;;;;;;5114854;28;20469;-77
2023/10/05 06:55:07;;;;;;;9.30;5.17;;;;;;;;;;5115152;28;20445;-77
2023/10/05 06:57:35;;;;;;;8.00;4.70;;;;;;;;;;5114966;28;20500;-77
2023/10/05 07:00:11;;;;;;;5.50;4.50;;;;;;;;;;5114825;28;20454;-77
2023/10/05 07:02:39;;;;;;;12.43;5.00;;;;;;;;;;5114795;28;20433;-77
2023/10/05 07:05:07;;;;;;;5.63;4.20;;;;;;;;;;5114811;28;20430;-77
2023/10/05 07:07:34;;;;;;;5.40;4.40;;;;;;;;;;5114809;28;20620;-77
2023/10/05 07:10:03;;;;;;;4.77;4.20;;;;;;;;;;5114852;28;20442;-76
2023/10/05 07:12:32;;;;;;;11.50;5.07;;;;;;;;;;5114328;28;20822;-76
2023/10/05 07:14:59;;;;;;;6.20;4.60;;;;;;;;;;5113858;28;20446;-77
2023/10/05 07:17:26;;;;;;;4.70;3.87;;;;;;;;;;5113920;28;20512;-77
2023/10/05 07:19:54;;;;;;;5.03;4.03;;;;;;;;;;5114315;28;20465;-77
2023/10/05 07:22:22;;;;;;;5.83;3.20;;;;;;;;;;5114422;28;20932;-77
2023/10/05 07:24:49;;;;;;;4.03;3.33;;;;;;;;;;5114366;28;20445;-77
2023/10/05 07:27:16;;;;;;;6.50;3.60;;;;;;;;;;5114066;28;20445;-76
2023/10/05 07:29:45;;;;;;;3.60;3.23;;;;;;;;;;5114194;28;20446;-77
2023/10/05 07:32:13;;;;;;;3.47;2.87;;;;;;;;;;5113885;28;20861;-77
2023/10/05 07:34:40;;;;;;;4.83;3.20;;;;;;;;;;5113982;28;20460;-77
2023/10/05 07:37:10;;;;;;;4.40;3.07;;;;;;;;;;5113699;28;20477;-77
2023/10/05 07:39:37;;;;;;;5.20;2.83;;;;;;;;;;5113547;28;20448;-77
2023/10/05 07:42:05;;;;;;;4.97;3.50;;;;;;;;;;5113773;28;20497;-77
2023/10/05 07:44:32;;;;;;;4.60;3.60;;;;;;;;;;5113820;28;20452;-76
2023/10/05 07:47:01;;;;;;;4.37;3.60;;;;;;;;;;5113811;28;20468;-76
2023/10/05 07:49:29;;;;;;;5.73;4.83;;;;;;;;;;5113614;28;20445;-77
2023/10/05 07:51:56;;;;;;;8.30;3.60;;;;;;;;;;5113623;28;20470;-77
2023/10/05 07:54:23;;;;;;;5.43;3.80;;;;;;;;;;5113554;28;21020;-77
2023/10/05 07:56:52;;;;;;;4.43;3.40;;;;;;;;;;5113380;28;20481;-77
2023/10/05 07:59:21;;;;;;;7.73;3.67;;;;;;;;;;5113540;28;20450;-77
2023/10/05 08:01:52;;;;;;;9.20;3.77;;;;;;;;;;5113278;28;20499;-77
2023/10/05 08:04:22;;;;;;;5.27;4.23;;;;;;;;;;5113699;28;20474;-77
2023/10/05 08:06:49;;;;;;;4.63;3.37;;;;;;;;;;5113591;28;20932;-77
2023/10/05 08:09:20;;;;;;;8.20;4.23;;;;;;;;;;5113743;28;20445;-77
2023/10/05 08:11:47;;;;;;;12.10;4.60;;;;;;;;;;5113140;28;20481;-76
2023/10/05 08:14:17;;;;;;;6.43;4.03;;;;;;;;;;5113521;28;20452;-77
2023/10/05 08:16:44;;;;;;;4.47;4.07;;;;;;;;;;5113028;28;20513;-76
2023/10/05 08:19:11;;;;;;;5.97;4.33;;;;;;;;;;5112841;28;20831;-75
2023/10/05 08:21:41;;;;;;;4.87;3.87;;;;;;;;;;5113100;28;20466;-75
2023/10/05 08:24:08;;;;;;;5.23;3.67;;;;;;;;;;5112754;28;20891;-75
2023/10/05 08:26:35;;;;;;;11.87;4.27;;;;;;;;;;5113019;28;20931;-75
2023/10/05 08:29:06;;;;;;;5.30;3.80;;;;;;;;;;5112938;28;20446;-76
2023/10/05 08:31:33;;;;;;;9.80;4.83;;;;;;;;;;5113050;28;21039;-75
2023/10/05 08:34:03;;;;;;;5.00;4.00;;;;;;;;;;5112979;28;20442;-76
2023/10/05 08:36:30;;;;;;;7.63;3.97;;;;;;;;;;5112714;28;20482;-76
2023/10/05 08:39:00;;;;;;;5.83;4.10;;;;;;;;;;5112938;28;20441;-75
2023/10/05 08:41:31;;;;;;;7.13;4.00;;;;;;;;;;5112927;28;21011;-75
2023/10/05 08:43:59;;;;;;;7.30;4.70;;;;;;;;;;5112863;28;20430;-76
2023/10/05 08:46:27;;;;;;;7.30;3.70;;;;;;;;;;5113012;28;20442;-76
2023/10/05 08:48:55;;;;;;;5.43;4.10;;;;;;;;;;5112919;28;20494;-76
2023/10/05 08:51:24;;;;;;;5.83;4.23;;;;;;;;;;5112918;28;20556;-76
2023/10/05 08:53:57;;;;;;;9.33;4.13;;;;;;;;;;5116973;28;20912;-76
2023/10/05 08:56:26;;;;;;;5.90;4.10;;;;;;;;;;5117070;28;20979;-76
2023/10/05 08:58:53;;;;;;;12.60;4.37;;;;;;;;;;5116633;28;20441;-76
2023/10/05 09:01:29;;;;;;;5.00;4.10;;;;;;;;;;5116782;28;20469;-76
2023/10/05 09:04:04;;;;;;;6.13;4.33;;;;;;;;;;5116751;28;20453;-76
2023/10/05 09:06:31;;;;;;;4.77;4.10;;;;;;;;;;5116756;28;20425;-76
2023/10/05 09:09:14;;;;;;;7.63;4.33;;;;;;;;;;5116352;28;20441;-76
2023/10/05 09:11:43;;;;;;;4.37;3.90;;;;;;;;;;5116643;28;20479;-76
2023/10/05 09:14:13;;;;;;;6.00;3.97;;;;;;;;;;5116426;28;20460;-76
2023/10/05 09:16:45;;;;;;;6.27;4.30;;;;;;;;;;5116225;28;20466;-76
2023/10/05 09:19:17;;;;;;;8.50;4.33;;;;;;;;;;5116290;28;20457;-76
2023/10/05 09:21:50;;;;;;;11.20;4.53;;;;;;;;;;5116502;28;20465;-75
2023/10/05 09:24:20;;;;;;;8.63;4.70;;;;;;;;;;5116257;28;20433;-76
2023/10/05 09:26:58;;;;;;;7.13;4.30;;;;;;;;;;5116304;28;20506;-76
2023/10/05 09:29:28;;;;;;;10.63;4.70;;;;;;;;;;5116045;28;20430;-75
2023/10/05 09:31:56;;;;;;;7.63;4.83;;;;;;;;;;5116281;28;20596;-76
2023/10/05 09:34:39;;;;;;;9.53;5.97;;;;;;;;;;5116318;28;20813;-76
2023/10/05 09:37:08;;;;;;;8.20;4.10;;;;;;;;;;5115674;28;20488;-76
2023/10/05 09:39:42;;;;;;;5.53;4.53;;;;;;;;;;5115895;28;20453;-76
2023/10/05 09:42:15;;;;;;;8.73;4.43;;;;;;;;;;5116523;28;20475;-76
2023/10/05 09:44:47;;;;;;;7.33;4.47;;;;;;;;;;5115798;28;20434;-76
2023/10/05 09:47:14;;;;;;;5.77;3.83;;;;;;;;;;5116059;28;20810;-76
2023/10/05 09:49:45;;;;;;;4.10;3.70;;;;;;;;;;5115844;28;20458;-75
2023/10/05 09:52:13;;;;;;;9.37;4.50;;;;;;;;;;5115904;28;20470;-76
2023/10/05 09:54:41;;;;;;;7.23;4.37;;;;;;;;;;5115850;28;20442;-76
2023/10/05 09:57:11;;;;;;;5.53;3.80;;;;;;;;;;5115730;28;21025;-76
2023/10/05 09:59:41;;;;;;;7.00;3.97;;;;;;;;;;5115802;28;20817;-76
2023/10/05 10:02:14;;;;;;;6.53;3.93;;;;;;;;;;5115728;28;20560;-76
2023/10/05 10:04:42;;;;;;;6.43;4.07;;;;;;;;;;5114773;28;20486;-76
2023/10/05 10:07:15;;;;;;;5.17;3.37;;;;;;;;;;5115157;28;20441;-76
2023/10/05 10:09:46;;;;;;;6.80;4.07;;;;;;;;;;5115647;28;20438;-76
2023/10/05 10:12:25;;;;;;;3.43;3.00;;;;;;;;;;5115104;28;20469;-76
2023/10/05 10:14:58;;;;;;;4.43;2.90;;;;;;;;;;5115320;28;20525;-76
2023/10/05 10:17:27;;;;;;;7.10;3.57;;;;;;;;;;5115206;28;20485;-76
2023/10/05 10:20:06;;;;;;;6.53;3.50;;;;;;;;;;5115134;28;20446;-76
2023/10/05 10:22:50;;;;;;;4.47;3.40;;;;;;;;;;5115255;28;20461;-76
2023/10/05 10:25:30;;;;;;;5.10;3.03;;;;;;;;;;5116050;28;20818;-76
2023/10/05 10:28:14;;;;;;;4.37;3.07;;;;;;;;;;5114885;28;20485;-76
2023/10/05 10:30:47;;;;;;;4.67;3.63;;;;;;;;;;5115364;28;20465;-76
2023/10/05 10:33:27;;;;;;;4.67;3.57;;;;;;;;;;5115261;28;20741;-76
2023/10/05 10:35:55;;;;;;;5.40;3.90;;;;;;;;;;5114891;28;20482;-76
2023/10/05 10:38:23;;;;;;;6.33;3.40;;;;;;;;;;5125948;27;20484;-76
2023/10/05 10:41:07;;;;;;;5.13;3.47;;;;;;;;;;5135564;27;20851;-76
2023/10/05 10:43:34;;;;;;;5.37;3.60;;;;;;;;;;5135766;27;20455;-75
2023/10/05 10:46:12;;;;;;;5.60;3.17;;;;;;;;;;5135091;27;20460;-75
2023/10/05 10:48:53;;;;;;;5.50;3.13;;;;;;;;;;5135490;27;20429;-76
2023/10/05 10:51:21;;;;;;;4.80;3.60;;;;;;;;;;5135058;27;20468;-75
2023/10/05 10:53:50;;;;;;;8.40;3.50;;;;;;;;;;5135342;27;20448;-76
2023/10/05 10:56:20;;;;;;;4.97;3.30;;;;;;;;;;5135275;27;20467;-76
2023/10/05 10:58:56;;;;;;;4.97;3.33;;;;;;;;;;5135346;27;20472;-75
2023/10/05 11:01:29;;;;;;;6.27;3.30;;;;;;;;;;5135061;27;20486;-75
2023/10/05 11:03:55;;;;;;;6.30;4.00;;;;;;;;;;5135114;27;20448;-75
2023/10/05 11:06:26;;;;;;;6.00;3.50;;;;;;;;;;5134616;27;20453;-76
2023/10/05 11:08:52;;;;;;;6.03;4.30;;;;;;;;;;5135007;27;20795;-75
2023/10/05 11:11:20;;;;;;;7.40;3.67;;;;;;;;;;5134696;27;20465;-76
2023/10/05 11:13:54;;;;;;;5.30;3.77;;;;;;;;;;5134558;27;20452;-75
2023/10/05 11:16:26;;;;;;;5.00;3.67;;;;;;;;;;5134820;27;20429;-75
2023/10/05 11:18:58;;;;;;;7.70;4.80;;;;;;;;;;5134469;27;20495;-76
2023/10/05 11:21:26;;;;;;;8.17;4.00;;;;;;;;;;5134771;27;20557;-76
2023/10/05 11:23:56;;;;;;;6.00;3.30;;;;;;;;;;5134887;27;20827;-76
2023/10/05 11:26:33;;;;;;;4.30;3.53;;;;;;;;;;5134878;27;20451;-77
2023/10/05 11:29:00;;;;;;;6.00;3.57;;;;;;;;;;5135013;27;20881;-78
2023/10/05 11:31:28;;;;;;;8.00;3.40;;;;;;;;;;5134941;27;20975;-77
2023/10/05 11:34:00;;;;;;;4.17;2.93;;;;;;;;;;5134896;27;20476;-77
2023/10/05 11:36:28;;;;;;;7.47;3.60;;;;;;;;;;5135014;27;20460;-77
2023/10/05 11:38:57;;;;;;;9.33;3.70;;;;;;;;;;5134781;27;20495;-77
2023/10/05 11:41:25;;;;;;;5.70;3.43;;;;;;;;;;5134418;27;20508;-77
2023/10/05 11:43:53;;;;;;;5.97;4.03;;;;;;;;;;5134635;27;20919;-76
2023/10/05 11:46:26;;;;;;;4.57;3.10;;;;;;;;;;5134663;27;20441;-77
2023/10/05 11:48:55;;;;;;;4.40;3.10;;;;;;;;;;5134667;27;20433;-77
2023/10/05 11:51:27;;;;;;;4.33;2.67;;;;;;;;;;5134397;27;20461;-77
2023/10/05 11:53:56;;;;;;;4.33;3.30;;;;;;;;;;5134730;27;20986;-77
2023/10/05 11:56:30;;;;;;;5.80;4.37;;;;;;;;;;5133977;27;20474;-77
2023/10/05 11:58:59;;;;;;;4.30;2.90;;;;;;;;;;5134062;27;20974;-77
2023/10/05 12:01:26;;;;;;;5.90;2.97;;;;;;;;;;5134362;27;20970;-77
2023/10/05 12:03:55;;;;;;;4.20;2.90;;;;;;;;;;5134243;27;20445;-76
2023/10/05 12:06:25;;;;;;;3.70;2.93;;;;;;;;;;5134130;27;20445;-76
2023/10/05 12:09:00;;;;;;;6.13;2.53;;;;;;;;;;5134122;27;20498;-76
2023/10/05 12:11:27;;;;;;;5.53;3.17;;;;;;;;;;5131904;27;21065;-76
2023/10/05 12:13:56;;;;;;;3.87;2.77;;;;;;;;;;5113197;28;20445;-76
2023/10/05 12:16:24;;;;;;;3.77;2.97;;;;;;;;;;5113599;28;20466;-76
2023/10/05 12:18:51;;;;;;;3.90;2.83;;;;;;;;;;5112837;28;20493;-76
2023/10/05 12:21:20;;;;;;;4.17;3.40;;;;;;;;;;5113302;28;20462;-77
2023/10/05 12:23:48;;;;;;;4.70;2.90;;;;;;;;;;5113332;28;20450;-74
2023/10/05 12:26:16;;;;;;;6.93;3.80;;;;;;;;;;5113013;28;20804;-77
2023/10/05 12:28:43;;;;;;;6.70;3.20;;;;;;;;;;5113203;28;20445;-76
2023/10/05 12:31:12;;;;;;;7.27;4.07;;;;;;;;;;5113305;28;20466;-77
2023/10/05 12:33:40;;;;;;;6.03;2.50;;;;;;;;;;5113372;28;20473;-77
2023/10/05 12:36:09;;;;;;;3.93;2.47;;;;;;;;;;5113322;28;20457;-77
2023/10/05 12:38:36;;;;;;;5.73;3.67;;;;;;;;;;5113165;28;20851;-77
2023/10/05 12:41:12;;;;;;;5.37;2.70;;;;;;;;;;5112940;28;20466;-77
2023/10/05 12:43:41;;;;;;;5.10;3.70;;;;;;;;;;5113210;28;20429;-77
2023/10/05 12:46:10;;;;;;;4.40;2.60;;;;;;;;;;5113532;28;20449;-77
2023/10/05 12:48:37;;;;;;;5.23;3.47;;;;;;;;;;5109554;28;20433;-78
2023/10/05 12:51:05;;;;;;;6.30;3.87;;;;;;;;;;5127396;28;20473;-78
2023/10/05 12:53:33;;;;;;;6.90;2.63;;;;;;;;;;5123057;28;20457;-78
2023/10/05 12:56:01;;;;;;;7.37;3.77;;;;;;;;;;5129962;28;20444;-79
2023/10/05 12:58:29;;;;;;;6.27;3.50;;;;;;;;;;5118847;28;20489;-78
2023/10/05 13:01:07;;;;;;;8.67;3.43;;;;;;;;;;5120909;28;20496;-78
2023/10/05 13:03:34;;;;;;;7.67;3.40;;;;;;;;;;5117650;28;20463;-78
2023/10/05 13:06:03;;;;;;;9.20;3.63;;;;;;;;;;5126475;28;20464;-77
2023/10/05 13:08:30;;;;;;;6.90;3.93;;;;;;;;;;5118080;28;20449;-78
2023/10/05 13:10:58;;;;;;;6.10;3.90;;;;;;;;;;5126694;28;20472;-77
2023/10/05 13:13:25;;;;;;;4.83;4.17;;;;;;;;;;5124870;28;20488;-78
2023/10/05 13:15:53;;;;;;;6.00;4.20;;;;;;;;;;5120445;28;20448;-78
2023/10/05 13:18:25;;;;;;;6.00;3.50;;;;;;;;;;5124502;28;20484;-78
2023/10/05 13:20:53;;;;;;;4.87;3.20;;;;;;;;;;5119967;28;20982;-78
2023/10/05 13:23:21;;;;;;;5.57;2.97;;;;;;;;;;5126161;28;20455;-78
2023/10/05 13:25:49;;;;;;;7.37;2.83;;;;;;;;;;5121273;28;20457;-78
2023/10/05 13:28:16;;;;;;;2.87;2.23;;;;;;;;;;5122222;28;20536;-77
2023/10/05 13:30:43;;;;;;;6.17;3.63;;;;;;;;;;5113680;28;20560;-78
2023/10/05 13:33:17;;;;;;;5.97;2.97;;;;;;;;;;5114524;28;20453;-77
2023/10/05 13:35:47;;;;;;;7.47;3.03;;;;;;;;;;5119558;28;20517;-78
2023/10/05 13:38:16;;;;;;;4.50;2.90;;;;;;;;;;5128352;27;20485;-78
2023/10/05 13:40:57;;;;;;;3.80;2.40;;;;;;;;;;5126966;27;20550;-77
2023/10/05 13:43:26;;;;;;;6.37;3.03;;;;;;;;;;5124712;27;20481;-76
2023/10/05 13:45:54;;;;;;;4.90;2.73;;;;;;;;;;5131448;27;20444;-77
2023/10/05 13:48:22;;;;;;;5.60;3.33;;;;;;;;;;5118948;27;20471;-76
2023/10/05 13:50:50;;;;;;;7.47;3.30;;;;;;;;;;5121948;27;20480;-77
2023/10/05 13:53:18;;;;;;;3.70;2.37;;;;;;;;;;5120350;27;20568;-77
2023/10/05 13:55:45;;;;;;;3.97;2.87;;;;;;;;;;5124109;27;20461;-77
2023/10/05 13:58:14;;;;;;;3.40;2.73;;;;;;;;;;5115838;28;20493;-77
2023/10/05 14:00:42;;;;;;;5.77;2.80;;;;;;;;;;5116653;27;20477;-77
2023/10/05 14:03:09;;;;;;;5.90;3.03;;;;;;;;;;5124315;27;20480;-77
2023/10/05 14:05:36;;;;;;;3.67;2.67;;;;;;;;;;5119247;27;20473;-77
2023/10/05 14:08:10;;;;;;;3.30;2.40;;;;;;;;;;5120253;27;20452;-76
2023/10/05 14:10:37;;;;;;;5.47;2.53;;;;;;;;;;5119187;27;20560;-76
2023/10/05 14:13:06;;;;;;;8.50;3.53;;;;;;;;;;5120459;27;20948;-76
2023/10/05 14:15:34;;;;;;;6.97;3.03;;;;;;;;;;5124204;27;20454;-77
2023/10/05 14:18:06;;;;;;;7.17;3.30;;;;;;;;;;5115360;28;20504;-76
2023/10/05 14:20:34;;;;;;;6.07;3.83;;;;;;;;;;5123442;27;20565;-76
2023/10/05 14:23:02;;;;;;;7.43;4.10;;;;;;;;;;5124001;27;20450;-77
2023/10/05 14:25:30;;;;;;;5.53;3.63;;;;;;;;;;5126135;27;20446;-76
2023/10/05 14:27:57;;;;;;;6.80;3.30;;;;;;;;;;5127304;27;20804;-77
2023/10/05 14:30:24;;;;;;;3.97;3.00;;;;;;;;;;5125771;27;20465;-77
2023/10/05 14:32:52;;;;;;;8.40;3.13;;;;;;;;;;5120938;27;20895;-76
2023/10/05 14:35:19;;;;;;;5.60;3.77;;;;;;;;;;5118797;27;20806;-77
2023/10/05 14:37:49;;;;;;;4.90;3.50;;;;;;;;;;5122424;27;20500;-77
2023/10/05 14:40:21;;;;;;;5.10;2.60;;;;;;;;;;5132297;27;20468;-76
2023/10/05 14:42:52;;;;;;;7.90;3.20;;;;;;;;;;5120238;27;20487;-77
2023/10/05 14:45:21;;;;;;;4.63;3.00;;;;;;;;;;5126381;27;20480;-77
2023/10/05 14:47:49;;;;;;;5.07;2.70;;;;;;;;;;5115534;28;20832;-76
2023/10/05 14:50:18;;;;;;;4.97;2.80;;;;;;;;;;5122491;27;20525;-76
2023/10/05 14:52:49;;;;;;;4.23;3.00;;;;;;;;;;5123234;27;20541;-77
2023/10/05 14:55:16;;;;;;;4.67;3.70;;;;;;;;;;5123647;27;20454;-77
2023/10/05 14:57:43;;;;;;;3.60;2.70;;;;;;;;;;5122575;27;20514;-77